createdAt,value
2023-01-13T00:01:41.638Z,5.10
2023-01-13T00:04:12.172Z,5.15
2023-01-13T00:06:41.677Z,5.15
2023-01-13T00:09:10.728Z,5.13
2023-01-13T00:11:39.691Z,5.10
2023-01-13T00:14:08.286Z,5.08
2023-01-13T00:16:37.229Z,5.08
2023-01-13T00:19:05.899Z,5.12
2023-01-13T00:21:34.618Z,5.19
2023-01-13T00:24:03.250Z,5.25
2023-01-13T00:26:34.203Z,5.28
2023-01-13T00:29:03.175Z,5.33
2023-01-13T00:31:32.256Z,5.37
2023-01-13T00:34:02.057Z,5.37
2023-01-13T00:36:31.841Z,5.36
2023-01-13T00:39:00.556Z,5.29
2023-01-13T00:41:49.420Z,5.26
2023-01-13T00:44:18.259Z,5.20
2023-01-13T00:46:47.033Z,5.11
2023-01-13T00:49:15.732Z,5.04
2023-01-13T00:51:44.860Z,4.96
2023-01-13T00:54:13.799Z,4.94
2023-01-13T00:56:43.056Z,4.94
2023-01-13T00:59:13.150Z,4.90
2023-01-13T01:01:42.299Z,4.77
2023-01-13T01:04:11.534Z,4.74
2023-01-13T01:06:40.611Z,4.75
2023-01-13T01:09:16.906Z,4.77
2023-01-13T01:11:45.850Z,4.75
2023-01-13T01:14:15.640Z,4.77
2023-01-13T01:16:44.925Z,4.93
2023-01-13T01:19:16.224Z,5.06
2023-01-13T01:21:45.466Z,5.09
2023-01-13T01:24:16.884Z,5.08
2023-01-13T01:26:45.618Z,5.13
2023-01-13T01:29:17.622Z,5.24
2023-01-13T01:31:46.783Z,5.33
2023-01-13T01:34:16.227Z,5.34
2023-01-13T01:36:45.134Z,5.28
2023-01-13T01:39:14.810Z,5.18
2023-01-13T01:42:03.813Z,5.15
2023-01-13T01:44:54.679Z,5.15
2023-01-13T01:47:25.423Z,5.16
2023-01-13T01:49:56.128Z,5.19
2023-01-13T01:52:34.301Z,5.11
2023-01-13T01:55:08.883Z,5.00
2023-01-13T01:57:49.186Z,5.04
2023-01-13T02:00:18.382Z,5.10
2023-01-13T02:02:51.685Z,5.05
2023-01-13T02:05:21.477Z,5.01
2023-01-13T02:07:54.377Z,4.99
2023-01-13T02:10:27.995Z,4.92
2023-01-13T02:13:01.882Z,4.82
2023-01-13T02:15:39.649Z,4.70
2023-01-13T02:18:36.793Z,4.56
2023-01-13T02:21:14.857Z,4.46
2023-01-13T02:24:14.384Z,4.53
2023-01-13T02:27:06.145Z,4.55
2023-01-13T02:30:12.726Z,4.48
2023-01-13T02:33:04.545Z,4.30
2023-01-13T02:35:48.125Z,4.31
2023-01-13T02:38:21.729Z,4.40
2023-01-13T02:41:34.299Z,4.50
2023-01-13T02:44:08.158Z,4.37
2023-01-13T02:47:04.591Z,4.39
2023-01-13T02:49:39.242Z,4.38
2023-01-13T02:52:33.724Z,4.46
2023-01-13T02:55:12.133Z,4.52
2023-01-13T02:57:43.342Z,4.62
2023-01-13T03:00:14.271Z,4.74
2023-01-13T03:02:43.596Z,4.87
2023-01-13T03:05:17.089Z,4.96
2023-01-13T03:07:46.413Z,5.03
2023-01-13T03:10:29.990Z,5.10
2023-01-13T03:13:22.093Z,5.16
2023-01-13T03:16:01.683Z,5.16
2023-01-13T03:18:51.185Z,5.11
2023-01-13T03:21:38.598Z,5.00
2023-01-13T03:24:10.420Z,4.85
2023-01-13T03:26:59.520Z,4.72
2023-01-13T03:29:35.299Z,4.59
2023-01-13T03:32:15.784Z,4.57
2023-01-13T03:34:52.228Z,4.54
2023-01-13T03:37:29.885Z,4.56
2023-01-13T03:40:03.029Z,4.65
2023-01-13T03:42:36.684Z,4.69
2023-01-13T03:45:15.089Z,4.71
2023-01-13T03:47:49.515Z,4.67
2023-01-13T03:50:26.985Z,4.72
2023-01-13T03:53:03.405Z,4.83
2023-01-13T03:55:36.666Z,4.97
2023-01-13T03:58:32.096Z,5.12
2023-01-13T04:01:23.770Z,5.22
2023-01-13T04:04:03.818Z,5.32
2023-01-13T04:06:58.719Z,5.36
2023-01-13T04:09:31.829Z,5.32
2023-01-13T04:12:52.290Z,5.36
2023-01-13T04:15:24.400Z,5.33
2023-01-13T04:17:53.815Z,5.39
2023-01-13T04:20:23.548Z,5.42
2023-01-13T04:22:52.744Z,5.45
2023-01-13T04:25:21.814Z,5.51
2023-01-13T04:27:50.455Z,5.41
2023-01-13T04:30:19.513Z,5.31
2023-01-13T04:32:48.465Z,5.15
2023-01-13T04:35:17.631Z,5.13
2023-01-13T04:37:46.677Z,5.15
2023-01-13T04:40:15.755Z,5.15
2023-01-13T04:42:46.004Z,5.14
2023-01-13T04:45:15.479Z,5.09
2023-01-13T04:47:44.319Z,5.01
2023-01-13T04:50:13.390Z,4.94
2023-01-13T04:52:42.725Z,4.91
2023-01-13T04:55:11.764Z,4.94
2023-01-13T04:57:40.837Z,4.95
2023-01-13T05:00:12.012Z,4.99
2023-01-13T05:02:41.020Z,5.04
2023-01-13T05:05:10.257Z,5.11
2023-01-13T05:07:39.184Z,5.17
2023-01-13T05:10:08.550Z,5.21
2023-01-13T05:12:56.391Z,5.26
2023-01-13T05:15:43.754Z,5.34
2023-01-13T05:18:13.455Z,5.37
2023-01-13T05:20:42.113Z,5.43
2023-01-13T05:23:29.915Z,5.48
2023-01-13T05:25:59.211Z,5.51
2023-01-13T05:28:32.545Z,5.55
2023-01-13T05:31:01.590Z,5.52
2023-01-13T05:33:31.104Z,5.44
2023-01-13T05:36:04.386Z,5.46
2023-01-13T05:38:33.608Z,5.53
2023-01-13T05:41:21.243Z,5.53
2023-01-13T05:43:50.462Z,5.50
2023-01-13T05:46:19.637Z,5.52
2023-01-13T05:48:48.776Z,5.56
2023-01-13T05:51:18.187Z,5.60
2023-01-13T05:53:47.740Z,5.66
2023-01-13T05:56:18.545Z,5.64
2023-01-13T05:58:47.445Z,5.62
2023-01-13T06:01:16.593Z,5.63
2023-01-13T06:03:45.374Z,5.68
2023-01-13T06:06:14.851Z,5.67
2023-01-13T06:08:44.013Z,5.53
2023-01-13T06:11:13.135Z,5.43
2023-01-13T06:13:42.060Z,5.42
2023-01-13T06:16:11.730Z,5.38
2023-01-13T06:18:41.101Z,5.29
2023-01-13T06:21:10.429Z,5.13
2023-01-13T06:23:39.376Z,5.12
2023-01-13T06:26:21.407Z,5.18
2023-01-13T06:28:50.961Z,5.25
2023-01-13T06:31:20.545Z,5.31
2023-01-13T06:33:55.491Z,5.35
2023-01-13T06:36:29.868Z,5.43
2023-01-13T06:39:02.559Z,5.50
2023-01-13T06:41:53.583Z,5.55
2023-01-13T06:44:24.206Z,5.56
2023-01-13T06:46:53.245Z,5.59
2023-01-13T06:49:22.371Z,5.68
2023-01-13T06:51:51.135Z,5.81
2023-01-13T06:54:20.227Z,5.88
2023-01-13T06:56:49.114Z,5.87
2023-01-13T06:59:18.025Z,5.88
2023-01-13T07:01:47.254Z,5.88
2023-01-13T07:04:16.904Z,5.89
2023-01-13T07:06:45.840Z,5.91
2023-01-13T07:09:14.916Z,5.95
2023-01-13T07:11:43.796Z,6.02
2023-01-13T07:14:31.459Z,6.13
2023-01-13T07:17:00.631Z,6.16
2023-01-13T07:19:29.679Z,6.19
2023-01-13T07:21:58.436Z,6.22
2023-01-13T07:24:27.458Z,6.34
2023-01-13T07:26:56.564Z,6.49
2023-01-13T07:29:25.559Z,6.58
2023-01-13T07:31:55.342Z,6.56
2023-01-13T07:34:25.129Z,6.61
2023-01-13T07:36:54.534Z,6.66
2023-01-13T07:39:23.646Z,6.72
2023-01-13T07:42:11.307Z,6.79
2023-01-13T07:44:40.229Z,6.74
2023-01-13T07:47:10.826Z,6.72
2023-01-13T07:49:40.752Z,6.70
2023-01-13T07:52:09.933Z,6.74
2023-01-13T07:54:41.008Z,6.72
2023-01-13T07:57:10.454Z,6.75
2023-01-13T07:59:39.597Z,6.82
2023-01-13T08:02:13.406Z,6.93
2023-01-13T08:04:42.538Z,7.06
2023-01-13T08:07:11.844Z,7.20
2023-01-13T08:09:40.627Z,7.33
2023-01-13T08:12:28.619Z,7.44
2023-01-13T08:14:57.799Z,7.64
2023-01-13T08:17:27.198Z,7.92
2023-01-13T08:19:56.661Z,8.46
2023-01-13T08:22:25.701Z,9.23
2023-01-13T08:24:55.222Z,9.92
2023-01-13T08:27:24.645Z,10.50
2023-01-13T08:29:53.729Z,10.59
2023-01-13T08:32:22.562Z,10.62
2023-01-13T08:34:51.880Z,10.58
2023-01-13T08:37:21.150Z,10.61
2023-01-13T08:39:50.458Z,10.90
2023-01-13T08:42:19.484Z,12.07
2023-01-13T08:44:48.430Z,13.04
2023-01-13T08:47:17.208Z,13.78
2023-01-13T08:49:46.588Z,14.69
2023-01-13T08:52:16.122Z,15.46
2023-01-13T08:54:45.103Z,16.57
2023-01-13T08:57:15.654Z,18.18
2023-01-13T08:59:44.945Z,19.66
2023-01-13T09:02:19.649Z,21.03
2023-01-13T09:04:50.065Z,21.83
2023-01-13T09:07:39.678Z,22.69
2023-01-13T09:10:10.013Z,23.94
2023-01-13T09:12:57.158Z,24.94
2023-01-13T09:15:26.434Z,25.39
2023-01-13T09:17:55.423Z,25.22
2023-01-13T09:20:25.180Z,24.85
2023-01-13T09:22:56.184Z,24.76
2023-01-13T09:25:26.095Z,24.46
2023-01-13T09:27:55.039Z,24.71
2023-01-13T09:30:26.818Z,25.33
2023-01-13T09:33:19.273Z,25.96
2023-01-13T09:35:48.998Z,25.65
2023-01-13T09:38:18.800Z,25.53
2023-01-13T09:40:50.755Z,25.06
2023-01-13T09:43:54.435Z,24.41
2023-01-13T09:46:47.657Z,23.57
2023-01-13T09:49:23.021Z,23.23
2023-01-13T09:52:08.682Z,23.56
2023-01-13T09:54:45.247Z,23.97
2023-01-13T09:57:20.295Z,24.49
2023-01-13T09:59:49.642Z,25.01
2023-01-13T10:02:53.348Z,25.16
2023-01-13T10:05:38.136Z,24.71
2023-01-13T10:08:21.054Z,23.98
2023-01-13T10:10:55.962Z,23.30
2023-01-13T10:13:31.569Z,22.77
2023-01-13T10:16:12.079Z,22.13
2023-01-13T10:19:05.770Z,21.87
2023-01-13T10:22:09.358Z,21.24
2023-01-13T10:25:26.763Z,20.49
2023-01-13T10:28:02.178Z,19.75
2023-01-13T10:30:39.401Z,19.22
2023-01-13T10:33:26.966Z,18.77
2023-01-13T10:36:13.400Z,18.35
2023-01-13T10:38:48.011Z,18.00
2023-01-13T10:41:17.515Z,17.80
2023-01-13T10:43:53.840Z,17.62
2023-01-13T10:46:23.081Z,17.53
2023-01-13T10:48:56.131Z,17.53
2023-01-13T10:51:50.253Z,17.64
2023-01-13T10:54:24.795Z,17.72
2023-01-13T10:57:19.967Z,18.01
2023-01-13T10:59:49.932Z,18.40
2023-01-13T11:02:33.801Z,18.71
2023-01-13T11:05:25.130Z,19.22
2023-01-13T11:07:56.823Z,19.78
2023-01-13T11:10:29.047Z,20.69
2023-01-13T11:13:14.114Z,22.24
2023-01-13T11:16:01.200Z,24.08
2023-01-13T11:19:14.954Z,25.66
2023-01-13T11:21:57.040Z,25.01
2023-01-13T11:24:53.268Z,24.55
2023-01-13T11:27:43.842Z,23.90
2023-01-13T11:30:32.406Z,23.11
2023-01-13T11:33:22.522Z,22.23
2023-01-13T11:35:58.472Z,21.16
2023-01-13T11:38:56.297Z,20.80
2023-01-13T11:41:45.061Z,20.64
2023-01-13T11:44:26.482Z,20.17
2023-01-13T11:46:55.838Z,19.82
2023-01-13T11:49:31.722Z,19.47
2023-01-13T11:52:49.168Z,19.17
2023-01-13T11:55:44.400Z,18.64
2023-01-13T11:58:51.512Z,18.14
2023-01-13T12:01:32.798Z,17.50
2023-01-13T12:04:51.624Z,17.10
2023-01-13T12:07:45.281Z,16.69
2023-01-13T12:10:47.563Z,16.52
2023-01-13T12:13:46.099Z,16.35
2023-01-13T12:16:22.285Z,16.16
2023-01-13T12:19:00.595Z,16.07
2023-01-13T12:21:55.358Z,16.01
2023-01-13T12:24:48.672Z,15.83
2023-01-13T12:27:37.779Z,15.71
2023-01-13T12:30:30.477Z,15.64
2023-01-13T12:33:18.753Z,15.63
2023-01-13T12:35:58.892Z,15.73
2023-01-13T12:38:36.462Z,15.77
2023-01-13T12:41:59.902Z,15.79
2023-01-13T12:44:29.131Z,15.62
2023-01-13T12:46:59.505Z,15.61
2023-01-13T12:49:31.281Z,15.55
2023-01-13T12:52:03.961Z,15.44
2023-01-13T12:54:41.829Z,15.37
2023-01-13T12:57:21.874Z,15.25
2023-01-13T12:59:59.801Z,15.14
2023-01-13T13:02:36.962Z,15.05
2023-01-13T13:05:15.184Z,15.03
2023-01-13T13:07:48.537Z,15.02
2023-01-13T13:10:21.740Z,15.04
2023-01-13T13:13:15.878Z,15.10
2023-01-13T13:15:50.974Z,15.16
2023-01-13T13:18:25.236Z,15.26
2023-01-13T13:21:11.310Z,15.29
2023-01-13T13:23:58.911Z,15.30
2023-01-13T13:26:43.036Z,15.29
2023-01-13T13:29:31.436Z,15.26
2023-01-13T13:32:17.077Z,15.18
2023-01-13T13:34:50.696Z,15.14
2023-01-13T13:37:22.384Z,15.14
2023-01-13T13:40:09.970Z,15.07
2023-01-13T13:43:09.822Z,14.88
2023-01-13T13:46:08.744Z,14.70
2023-01-13T13:48:39.812Z,14.58
2023-01-13T13:51:39.144Z,14.50
2023-01-13T13:54:15.859Z,14.30
2023-01-13T13:56:47.727Z,14.25
2023-01-13T13:59:23.728Z,14.20
2023-01-13T14:02:04.219Z,14.06
2023-01-13T14:04:37.387Z,13.96
2023-01-13T14:07:21.251Z,13.94
2023-01-13T14:09:57.138Z,13.92
2023-01-13T14:12:28.323Z,13.82
2023-01-13T14:15:00.674Z,13.70
2023-01-13T14:17:31.490Z,13.56
2023-01-13T14:20:12.705Z,13.45
2023-01-13T14:22:49.091Z,13.30
2023-01-13T14:26:13.406Z,13.21
2023-01-13T14:28:43.457Z,12.99
2023-01-13T14:31:13.868Z,12.97
2023-01-13T14:33:58.512Z,12.89
2023-01-13T14:36:33.370Z,12.77
2023-01-13T14:39:05.366Z,12.67
2023-01-13T14:41:34.230Z,12.58
2023-01-13T14:44:09.207Z,12.55
2023-01-13T14:46:44.698Z,12.51
2023-01-13T14:49:28.884Z,12.46
2023-01-13T14:52:21.471Z,12.38
2023-01-13T14:55:12.443Z,12.30
2023-01-13T14:57:42.054Z,12.28
2023-01-13T15:00:14.626Z,12.33
2023-01-13T15:03:02.620Z,12.28
2023-01-13T15:05:38.318Z,12.19
2023-01-13T15:08:12.047Z,12.14
2023-01-13T15:10:55.285Z,12.09
2023-01-13T15:13:53.588Z,12.02
2023-01-13T15:16:27.398Z,11.90
2023-01-13T15:18:56.905Z,11.82
2023-01-13T15:21:26.500Z,11.82
2023-01-13T15:23:55.271Z,11.85
2023-01-13T15:26:30.373Z,11.84
2023-01-13T15:29:01.302Z,11.80
2023-01-13T15:31:30.374Z,11.74
2023-01-13T15:34:00.895Z,11.65
2023-01-13T15:36:32.341Z,11.53
2023-01-13T15:39:03.061Z,11.44
2023-01-13T15:41:51.185Z,11.43
2023-01-13T15:44:39.072Z,11.37
2023-01-13T15:47:10.306Z,11.33
2023-01-13T15:49:44.817Z,11.31
2023-01-13T15:52:22.259Z,11.28
2023-01-13T15:54:52.769Z,11.27
2023-01-13T15:57:23.451Z,11.29
2023-01-13T15:59:55.593Z,11.29
2023-01-13T16:02:25.515Z,11.24
2023-01-13T16:04:55.432Z,11.19
2023-01-13T16:07:26.640Z,11.14
2023-01-13T16:09:55.765Z,11.12
2023-01-13T16:12:24.915Z,11.14
2023-01-13T16:14:53.796Z,11.13
2023-01-13T16:17:25.775Z,11.10
2023-01-13T16:19:54.605Z,11.06
2023-01-13T16:22:23.403Z,10.98
2023-01-13T16:24:52.750Z,10.96
2023-01-13T16:27:24.593Z,10.97
2023-01-13T16:29:53.865Z,10.94
2023-01-13T16:32:22.759Z,10.91
2023-01-13T16:34:51.841Z,10.87
2023-01-13T16:37:27.906Z,10.83
2023-01-13T16:39:56.941Z,10.83
2023-01-13T16:42:26.340Z,10.87
2023-01-13T16:44:55.710Z,10.88
2023-01-13T16:47:25.378Z,10.89
2023-01-13T16:49:54.583Z,10.87
2023-01-13T16:52:23.582Z,10.85
2023-01-13T16:54:52.558Z,10.87
2023-01-13T16:57:21.372Z,10.87
2023-01-13T16:59:51.079Z,10.79
2023-01-13T17:02:21.232Z,10.66
2023-01-13T17:04:50.643Z,10.56
2023-01-13T17:07:20.372Z,10.55
2023-01-13T17:09:49.438Z,10.58
2023-01-13T17:12:18.424Z,10.59
2023-01-13T17:14:47.375Z,10.60
2023-01-13T17:17:27.718Z,10.58
2023-01-13T17:19:57.395Z,10.58
2023-01-13T17:22:26.563Z,10.61
2023-01-13T17:24:56.246Z,10.63
2023-01-13T17:27:26.402Z,10.62
2023-01-13T17:29:55.827Z,10.56
2023-01-13T17:32:24.951Z,10.57
2023-01-13T17:34:54.891Z,10.64
2023-01-13T17:37:24.314Z,10.60
2023-01-13T17:39:54.349Z,10.51
2023-01-13T17:42:25.697Z,10.46
2023-01-13T17:44:55.249Z,10.47
2023-01-13T17:47:24.611Z,10.53
2023-01-13T17:49:54.174Z,10.53
2023-01-13T17:52:23.630Z,10.45
2023-01-13T17:54:53.310Z,10.40
2023-01-13T17:57:22.249Z,10.41
2023-01-13T17:59:51.865Z,10.46
2023-01-13T18:02:21.602Z,10.42
2023-01-13T18:04:50.937Z,10.35
2023-01-13T18:07:20.508Z,10.23
2023-01-13T18:09:50.110Z,10.12
2023-01-13T18:12:19.382Z,10.07
2023-01-13T18:14:48.448Z,10.01
2023-01-13T18:17:18.727Z,9.96
2023-01-13T18:20:07.076Z,9.90
2023-01-13T18:22:54.694Z,9.83
2023-01-13T18:25:42.671Z,9.75
2023-01-13T18:28:11.658Z,9.68
2023-01-13T18:30:40.664Z,9.68
2023-01-13T18:33:09.944Z,9.71
2023-01-13T18:35:39.850Z,9.81
2023-01-13T18:38:09.396Z,9.85
2023-01-13T18:40:38.391Z,9.86
2023-01-13T18:43:07.249Z,9.90
2023-01-13T18:45:36.839Z,9.93
2023-01-13T18:48:07.279Z,9.96
2023-01-13T18:50:36.133Z,9.92
2023-01-13T18:53:05.449Z,9.79
2023-01-13T18:55:35.127Z,9.69
2023-01-13T18:58:05.026Z,9.66
2023-01-13T19:00:37.763Z,9.67
2023-01-13T19:05:39.126Z,9.71
2023-01-13T19:08:08.869Z,9.75
2023-01-13T19:10:40.203Z,9.83
2023-01-13T19:13:09.691Z,9.88
2023-01-13T19:15:38.924Z,9.93
2023-01-13T19:18:08.194Z,9.89
2023-01-13T19:20:38.964Z,9.92
2023-01-13T19:23:09.365Z,9.96
2023-01-13T19:25:40.018Z,9.95
2023-01-13T19:28:09.593Z,9.96
2023-01-13T19:30:39.800Z,9.99
2023-01-13T19:33:11.907Z,10.03
2023-01-13T19:35:41.532Z,10.12
2023-01-13T19:38:11.763Z,10.13
2023-01-13T19:40:42.067Z,10.11
2023-01-13T19:43:30.588Z,10.11
2023-01-13T19:46:01.273Z,10.10
2023-01-13T19:48:31.560Z,10.06
2023-01-13T19:51:02.755Z,10.02
2023-01-13T19:53:32.268Z,10.02
2023-01-13T19:56:01.752Z,10.05
2023-01-13T19:58:30.903Z,10.06
2023-01-13T20:01:10.121Z,10.04
2023-01-13T20:03:41.044Z,9.97
2023-01-13T20:06:11.316Z,9.94
2023-01-13T20:08:46.772Z,9.88
2023-01-13T20:11:23.649Z,9.79
2023-01-13T20:13:54.483Z,9.68
2023-01-13T20:16:24.614Z,9.59
2023-01-13T20:18:54.997Z,9.52
2023-01-13T20:21:24.836Z,9.44
2023-01-13T20:23:55.253Z,9.38
2023-01-13T20:26:24.864Z,9.33
2023-01-13T20:28:54.225Z,9.29
2023-01-13T20:31:25.379Z,9.24
2023-01-13T20:33:55.947Z,9.22
2023-01-13T20:36:29.423Z,9.17
2023-01-13T20:39:03.160Z,9.06
2023-01-13T20:41:50.972Z,8.94
2023-01-13T20:44:20.362Z,8.84
2023-01-13T20:46:49.615Z,8.82
2023-01-13T20:49:18.788Z,8.77
2023-01-13T20:51:48.955Z,8.75
2023-01-13T20:54:19.884Z,8.80
2023-01-13T20:56:50.767Z,8.85
2023-01-13T20:59:20.340Z,8.84
2023-01-13T21:01:49.939Z,8.83
2023-01-13T21:04:19.127Z,8.86
2023-01-13T21:06:49.293Z,8.92
2023-01-13T21:09:19.429Z,8.95
2023-01-13T21:12:08.057Z,8.94
2023-01-13T21:14:57.028Z,8.77
2023-01-13T21:17:45.573Z,8.70
2023-01-13T21:20:16.418Z,8.72
2023-01-13T21:22:49.043Z,8.76
2023-01-13T21:25:20.680Z,8.71
2023-01-13T21:27:50.157Z,8.69
2023-01-13T21:30:20.015Z,8.76
2023-01-13T21:32:49.798Z,8.87
2023-01-13T21:35:19.467Z,8.92
2023-01-13T21:37:48.708Z,8.93
2023-01-13T21:40:18.024Z,8.96
2023-01-13T21:43:05.418Z,9.02
2023-01-13T21:45:53.112Z,9.00
2023-01-13T21:48:21.674Z,9.01
2023-01-13T21:50:50.345Z,8.99
2023-01-13T21:53:19.135Z,9.02
2023-01-13T21:55:52.785Z,9.09
2023-01-13T21:58:21.839Z,9.08
2023-01-13T22:00:51.769Z,9.02
2023-01-13T22:03:21.400Z,9.04
2023-01-13T22:05:59.585Z,9.09
2023-01-13T22:08:29.690Z,9.04
2023-01-13T22:11:00.893Z,9.02
2023-01-13T22:13:49.401Z,9.01
2023-01-13T22:16:19.020Z,8.89
2023-01-13T22:18:48.202Z,8.92
2023-01-13T22:21:18.797Z,8.91
2023-01-13T22:23:48.300Z,8.90
2023-01-13T22:26:18.487Z,8.95
2023-01-13T22:28:48.539Z,9.02
2023-01-13T22:31:21.440Z,9.06
2023-01-13T22:33:56.816Z,9.06
2023-01-13T22:36:26.696Z,9.11
2023-01-13T22:39:01.171Z,9.11
2023-01-13T22:41:32.090Z,9.15
2023-01-13T22:44:00.703Z,9.19
2023-01-13T22:46:30.213Z,9.15
2023-01-13T22:48:59.319Z,9.10
2023-01-13T22:51:28.599Z,9.12
2023-01-13T22:53:58.282Z,9.16
2023-01-13T22:56:28.007Z,9.18
2023-01-13T22:59:02.892Z,9.13
2023-01-13T23:01:34.843Z,9.10
2023-01-13T23:04:04.204Z,9.13
2023-01-13T23:06:34.283Z,9.18
2023-01-13T23:09:02.862Z,9.21
2023-01-13T23:11:32.364Z,9.22
2023-01-13T23:14:04.744Z,9.24
2023-01-13T23:16:36.530Z,9.24
2023-01-13T23:19:07.510Z,9.26
2023-01-13T23:21:38.567Z,9.26
2023-01-13T23:24:08.281Z,9.26
2023-01-13T23:26:37.635Z,9.22
2023-01-13T23:29:09.446Z,9.20
2023-01-13T23:31:39.339Z,9.14
2023-01-13T23:34:08.535Z,9.03
2023-01-13T23:36:41.606Z,8.93
2023-01-13T23:39:10.934Z,8.87
2023-01-13T23:41:40.265Z,8.82
2023-01-13T23:44:09.826Z,8.72
2023-01-13T23:46:39.028Z,8.65
2023-01-13T23:49:08.489Z,8.64
2023-01-13T23:51:37.758Z,8.69
2023-01-13T23:54:07.023Z,8.81
2023-01-13T23:56:39.648Z,8.85
2023-01-13T23:59:09.261Z,8.75
